Estancia La Verde, Argentina
Current Conditions -  °F | °C
As of 10:00 AM on Friday 31 Oct 2014 (Local Time) from SANT Reporting Station
Broken Clouds Broken Clouds  
Wind Chill: 25°   Ceiling: 3000
Heat Index: 26°   Visibility: 6mi
Dew Point: 19°   Wind: 2mph
Humidity: 69%   Direction: 180°S
Pressure: 29.85"   Gusts: NA
Location:  27.04°S, 64.38°W
Report Text: SANT 311300Z 18002KT 9999 FEW025 BKN03025/19 Q1011
Loading
Personal Weather Stations






























Interactive Weather Map
Tropical Storm Tracking
New forecast layout! Learn more

10-Day Weather Forecast

Advertisements
Track Severe Weather on mobile